sensor_id;sensor_type;location;lat;lon;timestamp;pressure;altitude;pressure_sealevel;temperature;humidity
50310;BME280;36207;51.850;21.698;2022-08-14T00:00:12;99685.88;;;20.53;76.46
50310;BME280;36207;51.850;21.698;2022-08-14T00:02:59;99679.23;;;20.54;76.48
50310;BME280;36207;51.850;21.698;2022-08-14T00:05:26;99671.92;;;20.54;76.67
50310;BME280;36207;51.850;21.698;2022-08-14T00:07:52;99665.17;;;20.54;76.69
50310;BME280;36207;51.850;21.698;2022-08-14T00:10:20;99663.02;;;20.52;76.66
50310;BME280;36207;51.850;21.698;2022-08-14T00:12:52;99659.92;;;20.51;76.62
50310;BME280;36207;51.850;21.698;2022-08-14T00:15:32;99658.34;;;20.51;76.63
50310;BME280;36207;51.850;21.698;2022-08-14T00:18:02;99658.02;;;20.51;76.72
50310;BME280;36207;51.850;21.698;2022-08-14T00:20:32;99656.45;;;20.51;76.75
50310;BME280;36207;51.850;21.698;2022-08-14T00:22:59;99652.82;;;20.50;76.68
50310;BME280;36207;51.850;21.698;2022-08-14T00:25:26;99653.25;;;20.51;76.86
50310;BME280;36207;51.850;21.698;2022-08-14T00:27:54;99654.92;;;20.53;76.83
50310;BME280;36207;51.850;21.698;2022-08-14T00:30:21;99654.11;;;20.54;76.93
50310;BME280;36207;51.850;21.698;2022-08-14T00:32:47;99654.05;;;20.53;76.81
50310;BME280;36207;51.850;21.698;2022-08-14T00:35:14;99651.67;;;20.52;76.78
50310;BME280;36207;51.850;21.698;2022-08-14T00:37:43;99652.43;;;20.52;76.91
50310;BME280;36207;51.850;21.698;2022-08-14T00:40:12;99652.80;;;20.53;77.02
50310;BME280;36207;51.850;21.698;2022-08-14T00:42:40;99654.55;;;20.53;76.93
50310;BME280;36207;51.850;21.698;2022-08-14T00:45:10;99655.70;;;20.52;77.07
50310;BME280;36207;51.850;21.698;2022-08-14T00:47:43;99656.25;;;20.53;77.12
50310;BME280;36207;51.850;21.698;2022-08-14T00:50:16;99656.01;;;20.53;77.10
50310;BME280;36207;51.850;21.698;2022-08-14T00:52:44;99657.59;;;20.55;77.09
50310;BME280;36207;51.850;21.698;2022-08-14T00:55:12;99653.29;;;20.57;77.14
50310;BME280;36207;51.850;21.698;2022-08-14T00:57:39;99655.52;;;20.57;77.07
50310;BME280;36207;51.850;21.698;2022-08-14T01:00:10;99650.90;;;20.58;77.06
50310;BME280;36207;51.850;21.698;2022-08-14T01:02:42;99653.13;;;20.58;77.17
50310;BME280;36207;51.850;21.698;2022-08-14T01:05:11;99643.54;;;20.59;77.24
50310;BME280;36207;51.850;21.698;2022-08-14T01:07:53;99631.77;;;20.59;77.26
50310;BME280;36207;51.850;21.698;2022-08-14T01:10:24;99637.08;;;20.59;77.27
50310;BME280;36207;51.850;21.698;2022-08-14T01:13:12;99636.91;;;20.58;77.16
50310;BME280;36207;51.850;21.698;2022-08-14T01:15:43;99639.56;;;20.58;77.13
50310;BME280;36207;51.850;21.698;2022-08-14T01:18:10;99638.75;;;20.58;77.19
50310;BME280;36207;51.850;21.698;2022-08-14T01:20:56;99637.07;;;20.58;77.28
50310;BME280;36207;51.850;21.698;2022-08-14T01:23:30;99633.52;;;20.56;77.20
50310;BME280;36207;51.850;21.698;2022-08-14T01:25:57;99626.45;;;20.55;77.18
50310;BME280;36207;51.850;21.698;2022-08-14T01:28:24;99626.02;;;20.55;77.27
50310;BME280;36207;51.850;21.698;2022-08-14T01:30:57;99628.70;;;20.57;77.23
50310;BME280;36207;51.850;21.698;2022-08-14T01:33:27;99629.80;;;20.57;77.24
50310;BME280;36207;51.850;21.698;2022-08-14T01:35:56;99632.59;;;20.55;77.11
50310;BME280;36207;51.850;21.698;2022-08-14T01:38:24;99632.96;;;20.54;77.24
50310;BME280;36207;51.850;21.698;2022-08-14T01:40:51;99630.46;;;20.53;77.28
50310;BME280;36207;51.850;21.698;2022-08-14T01:43:18;99634.10;;;20.53;77.26
50310;BME280;36207;51.850;21.698;2022-08-14T01:45:45;99625.59;;;20.52;77.26
50310;BME280;36207;51.850;21.698;2022-08-14T01:48:14;99626.72;;;20.51;77.29
50310;BME280;36207;51.850;21.698;2022-08-14T01:50:41;99627.57;;;20.50;77.20
50310;BME280;36207;51.850;21.698;2022-08-14T01:53:08;99624.14;;;20.49;77.27
50310;BME280;36207;51.850;21.698;2022-08-14T01:55:35;99627.73;;;20.50;77.31
50310;BME280;36207;51.850;21.698;2022-08-14T01:58:03;99627.13;;;20.49;77.37
50310;BME280;36207;51.850;21.698;2022-08-14T02:00:30;99629.34;;;20.48;77.33
50310;BME280;36207;51.850;21.698;2022-08-14T02:02:56;99628.55;;;20.45;77.40
50310;BME280;36207;51.850;21.698;2022-08-14T02:05:24;99628.15;;;20.43;77.43
50310;BME280;36207;51.850;21.698;2022-08-14T02:07:55;99627.88;;;20.44;77.40
50310;BME280;36207;51.850;21.698;2022-08-14T02:10:21;99627.54;;;20.44;77.41
50310;BME280;36207;51.850;21.698;2022-08-14T02:12:49;99627.92;;;20.43;77.49
50310;BME280;36207;51.850;21.698;2022-08-14T02:15:30;99626.29;;;20.42;77.57
50310;BME280;36207;51.850;21.698;2022-08-14T02:17:56;99624.08;;;20.44;77.57
50310;BME280;36207;51.850;21.698;2022-08-14T02:20:30;99623.35;;;20.46;77.59
50310;BME280;36207;51.850;21.698;2022-08-14T02:22:59;99623.53;;;20.48;77.68
50310;BME280;36207;51.850;21.698;2022-08-14T02:25:26;99617.14;;;20.48;77.66
50310;BME280;36207;51.850;21.698;2022-08-14T02:27:52;99619.36;;;20.48;77.71
50310;BME280;36207;51.850;21.698;2022-08-14T02:30:24;99613.63;;;20.50;77.81
50310;BME280;36207;51.850;21.698;2022-08-14T02:32:52;99612.39;;;20.53;77.85
50310;BME280;36207;51.850;21.698;2022-08-14T02:35:18;99612.02;;;20.55;77.67
50310;BME280;36207;51.850;21.698;2022-08-14T02:37:47;99611.27;;;20.55;77.75
50310;BME280;36207;51.850;21.698;2022-08-14T02:40:13;99609.05;;;20.55;77.76
50310;BME280;36207;51.850;21.698;2022-08-14T02:42:40;99605.81;;;20.56;77.73
50310;BME280;36207;51.850;21.698;2022-08-14T02:45:08;99604.95;;;20.57;77.90
50310;BME280;36207;51.850;21.698;2022-08-14T02:47:35;99600.52;;;20.58;77.87
50310;BME280;36207;51.850;21.698;2022-08-14T02:50:02;99600.45;;;20.57;77.91
50310;BME280;36207;51.850;21.698;2022-08-14T02:52:29;99595.72;;;20.56;77.77
50310;BME280;36207;51.850;21.698;2022-08-14T02:54:55;99597.67;;;20.56;77.93
50310;BME280;36207;51.850;21.698;2022-08-14T02:57:22;99601.52;;;20.58;77.91
50310;BME280;36207;51.850;21.698;2022-08-14T02:59:52;99602.92;;;20.60;78.00
50310;BME280;36207;51.850;21.698;2022-08-14T03:02:19;99598.48;;;20.60;77.90
50310;BME280;36207;51.850;21.698;2022-08-14T03:04:45;99591.45;;;20.59;77.93
50310;BME280;36207;51.850;21.698;2022-08-14T03:07:12;99592.64;;;20.57;77.84
50310;BME280;36207;51.850;21.698;2022-08-14T03:09:41;99590.90;;;20.57;77.94
50310;BME280;36207;51.850;21.698;2022-08-14T03:12:08;99588.79;;;20.58;77.97
50310;BME280;36207;51.850;21.698;2022-08-14T03:14:34;99589.88;;;20.58;77.99
50310;BME280;36207;51.850;21.698;2022-08-14T03:17:03;99585.98;;;20.57;78.00
50310;BME280;36207;51.850;21.698;2022-08-14T03:19:35;99584.83;;;20.58;77.89
50310;BME280;36207;51.850;21.698;2022-08-14T03:22:01;99585.83;;;20.59;78.02
50310;BME280;36207;51.850;21.698;2022-08-14T03:24:29;99583.30;;;20.61;78.05
50310;BME280;36207;51.850;21.698;2022-08-14T03:26:55;99582.33;;;20.62;78.03
50310;BME280;36207;51.850;21.698;2022-08-14T03:29:22;99584.91;;;20.60;78.02
50310;BME280;36207;51.850;21.698;2022-08-14T03:31:49;99586.09;;;20.59;78.02
50310;BME280;36207;51.850;21.698;2022-08-14T03:34:17;99587.17;;;20.59;78.09
50310;BME280;36207;51.850;21.698;2022-08-14T03:36:44;99589.90;;;20.60;78.02
50310;BME280;36207;51.850;21.698;2022-08-14T03:39:11;99589.90;;;20.61;78.18
50310;BME280;36207;51.850;21.698;2022-08-14T03:41:38;99590.45;;;20.61;78.16
50310;BME280;36207;51.850;21.698;2022-08-14T03:44:06;99597.73;;;20.61;78.13
50310;BME280;36207;51.850;21.698;2022-08-14T03:46:35;99602.02;;;20.64;78.18
50310;BME280;36207;51.850;21.698;2022-08-14T03:49:03;99601.95;;;20.65;78.16
50310;BME280;36207;51.850;21.698;2022-08-14T03:51:32;99600.30;;;20.64;78.17
50310;BME280;36207;51.850;21.698;2022-08-14T03:54:00;99601.91;;;20.63;78.12
50310;BME280;36207;51.850;21.698;2022-08-14T03:56:28;99604.15;;;20.64;78.20
50310;BME280;36207;51.850;21.698;2022-08-14T03:58:58;99605.27;;;20.66;78.28
50310;BME280;36207;51.850;21.698;2022-08-14T04:01:25;99610.54;;;20.68;78.27
50310;BME280;36207;51.850;21.698;2022-08-14T04:03:54;99612.06;;;20.69;78.31
50310;BME280;36207;51.850;21.698;2022-08-14T04:06:27;99612.08;;;20.69;78.39
50310;BME280;36207;51.850;21.698;2022-08-14T04:08:53;99610.66;;;20.69;78.37
50310;BME280;36207;51.850;21.698;2022-08-14T04:11:20;99607.77;;;20.71;78.31
50310;BME280;36207;51.850;21.698;2022-08-14T04:13:46;99612.00;;;20.73;78.32
50310;BME280;36207;51.850;21.698;2022-08-14T04:16:16;99610.94;;;20.74;78.42
50310;BME280;36207;51.850;21.698;2022-08-14T04:18:50;99609.76;;;20.76;78.52
50310;BME280;36207;51.850;21.698;2022-08-14T04:21:19;99609.31;;;20.80;78.49
50310;BME280;36207;51.850;21.698;2022-08-14T04:23:51;99612.86;;;20.82;78.43
50310;BME280;36207;51.850;21.698;2022-08-14T04:26:18;99612.54;;;20.83;78.48
50310;BME280;36207;51.850;21.698;2022-08-14T04:28:48;99616.00;;;20.83;78.45
50310;BME280;36207;51.850;21.698;2022-08-14T04:31:17;99617.33;;;20.84;78.52
50310;BME280;36207;51.850;21.698;2022-08-14T04:33:44;99613.50;;;20.86;78.46
50310;BME280;36207;51.850;21.698;2022-08-14T04:36:10;99617.64;;;20.89;78.66
50310;BME280;36207;51.850;21.698;2022-08-14T04:38:38;99618.72;;;20.93;78.55
50310;BME280;36207;51.850;21.698;2022-08-14T04:41:23;99620.05;;;20.96;78.61
50310;BME280;36207;51.850;21.698;2022-08-14T04:44:08;99615.29;;;20.98;78.66
50310;BME280;36207;51.850;21.698;2022-08-14T04:46:35;99613.09;;;21.02;78.62
50310;BME280;36207;51.850;21.698;2022-08-14T04:49:05;99609.75;;;21.04;78.61
50310;BME280;36207;51.850;21.698;2022-08-14T04:51:31;99610.79;;;21.06;78.73
50310;BME280;36207;51.850;21.698;2022-08-14T04:53:58;99613.25;;;21.07;78.72
50310;BME280;36207;51.850;21.698;2022-08-14T04:56:26;99614.40;;;21.08;78.74
50310;BME280;36207;51.850;21.698;2022-08-14T04:59:00;99607.79;;;21.09;78.60
50310;BME280;36207;51.850;21.698;2022-08-14T05:01:31;99615.08;;;21.11;78.60
50310;BME280;36207;51.850;21.698;2022-08-14T05:03:59;99617.71;;;21.13;78.65
50310;BME280;36207;51.850;21.698;2022-08-14T05:06:25;99622.69;;;21.13;78.58
50310;BME280;36207;51.850;21.698;2022-08-14T05:08:53;99623.59;;;21.15;78.55
50310;BME280;36207;51.850;21.698;2022-08-14T05:11:19;99623.61;;;21.17;78.55
50310;BME280;36207;51.850;21.698;2022-08-14T05:13:46;99619.55;;;21.18;78.55
50310;BME280;36207;51.850;21.698;2022-08-14T05:16:14;99619.04;;;21.17;78.60
50310;BME280;36207;51.850;21.698;2022-08-14T05:18:41;99616.97;;;21.16;78.52
50310;BME280;36207;51.850;21.698;2022-08-14T05:21:11;99612.67;;;21.15;78.57
50310;BME280;36207;51.850;21.698;2022-08-14T05:23:38;99615.23;;;21.16;78.60
50310;BME280;36207;51.850;21.698;2022-08-14T05:26:06;99615.20;;;21.18;78.68
50310;BME280;36207;51.850;21.698;2022-08-14T05:28:40;99612.27;;;21.18;78.62
50310;BME280;36207;51.850;21.698;2022-08-14T05:31:10;99609.39;;;21.19;78.58
50310;BME280;36207;51.850;21.698;2022-08-14T05:33:37;99608.67;;;21.22;78.70
50310;BME280;36207;51.850;21.698;2022-08-14T05:36:06;99601.75;;;21.26;78.80
50310;BME280;36207;51.850;21.698;2022-08-14T05:38:35;99600.35;;;21.29;78.88
50310;BME280;36207;51.850;21.698;2022-08-14T05:41:04;99601.62;;;21.31;78.75
50310;BME280;36207;51.850;21.698;2022-08-14T05:43:31;99603.95;;;21.32;78.73
50310;BME280;36207;51.850;21.698;2022-08-14T05:45:59;99603.15;;;21.34;78.66
50310;BME280;36207;51.850;21.698;2022-08-14T05:48:27;99603.79;;;21.36;78.55
50310;BME280;36207;51.850;21.698;2022-08-14T05:50:55;99605.19;;;21.40;78.65
50310;BME280;36207;51.850;21.698;2022-08-14T05:53:23;99607.80;;;21.41;78.69
50310;BME280;36207;51.850;21.698;2022-08-14T05:55:50;99608.35;;;21.41;78.74
50310;BME280;36207;51.850;21.698;2022-08-14T05:58:18;99608.67;;;21.42;78.72
50310;BME280;36207;51.850;21.698;2022-08-14T06:00:45;99609.33;;;21.41;78.69
50310;BME280;36207;51.850;21.698;2022-08-14T06:03:17;99607.55;;;21.42;78.85
50310;BME280;36207;51.850;21.698;2022-08-14T06:05:49;99608.79;;;21.42;78.72
50310;BME280;36207;51.850;21.698;2022-08-14T06:08:28;99613.02;;;21.41;78.79
50310;BME280;36207;51.850;21.698;2022-08-14T06:11:01;99616.79;;;21.43;78.77
50310;BME280;36207;51.850;21.698;2022-08-14T06:13:30;99618.55;;;21.47;78.86
50310;BME280;36207;51.850;21.698;2022-08-14T06:15:58;99617.91;;;21.48;78.69
50310;BME280;36207;51.850;21.698;2022-08-14T06:18:24;99616.29;;;21.48;78.63
50310;BME280;36207;51.850;21.698;2022-08-14T06:20:52;99620.48;;;21.50;78.62
50310;BME280;36207;51.850;21.698;2022-08-14T06:23:19;99615.48;;;21.53;78.59
50310;BME280;36207;51.850;21.698;2022-08-14T06:25:46;99615.56;;;21.55;78.66
50310;BME280;36207;51.850;21.698;2022-08-14T06:28:21;99617.10;;;21.56;78.54
50310;BME280;36207;51.850;21.698;2022-08-14T06:30:48;99621.13;;;21.57;78.58
50310;BME280;36207;51.850;21.698;2022-08-14T06:33:16;99621.19;;;21.59;78.67
50310;BME280;36207;51.850;21.698;2022-08-14T06:35:44;99624.64;;;21.62;78.60
50310;BME280;36207;51.850;21.698;2022-08-14T06:38:19;99626.05;;;21.62;78.52
50310;BME280;36207;51.850;21.698;2022-08-14T06:40:47;99627.66;;;21.61;78.55
50310;BME280;36207;51.850;21.698;2022-08-14T06:43:15;99626.14;;;21.59;78.52
50310;BME280;36207;51.850;21.698;2022-08-14T06:45:43;99625.80;;;21.57;78.43
50310;BME280;36207;51.850;21.698;2022-08-14T06:48:17;99624.11;;;21.58;78.49
50310;BME280;36207;51.850;21.698;2022-08-14T06:50:45;99622.52;;;21.62;78.70
50310;BME280;36207;51.850;21.698;2022-08-14T06:53:11;99624.44;;;21.66;78.76
50310;BME280;36207;51.850;21.698;2022-08-14T06:55:40;99623.76;;;21.68;78.66
50310;BME280;36207;51.850;21.698;2022-08-14T06:58:16;99623.23;;;21.71;78.68
50310;BME280;36207;51.850;21.698;2022-08-14T07:00:44;99622.44;;;21.76;78.62
50310;BME280;36207;51.850;21.698;2022-08-14T07:03:31;99619.64;;;21.80;78.76
50310;BME280;36207;51.850;21.698;2022-08-14T07:06:16;99621.85;;;21.85;78.79
50310;BME280;36207;51.850;21.698;2022-08-14T07:08:43;99622.75;;;21.92;78.78
50310;BME280;36207;51.850;21.698;2022-08-14T07:11:11;99625.89;;;22.00;78.78
50310;BME280;36207;51.850;21.698;2022-08-14T07:13:38;99625.21;;;22.07;78.76
50310;BME280;36207;51.850;21.698;2022-08-14T07:16:06;99626.11;;;22.12;78.58
50310;BME280;36207;51.850;21.698;2022-08-14T07:18:34;99628.65;;;22.17;78.63
50310;BME280;36207;51.850;21.698;2022-08-14T07:21:02;99629.73;;;22.22;78.60
50310;BME280;36207;51.850;21.698;2022-08-14T07:23:30;99631.00;;;22.27;78.70
50310;BME280;36207;51.850;21.698;2022-08-14T07:25:59;99635.64;;;22.32;78.50
50310;BME280;36207;51.850;21.698;2022-08-14T07:28:29;99634.51;;;22.35;78.49
50310;BME280;36207;51.850;21.698;2022-08-14T07:30:58;99634.64;;;22.38;78.37
50310;BME280;36207;51.850;21.698;2022-08-14T07:33:30;99634.27;;;22.42;78.33
50310;BME280;36207;51.850;21.698;2022-08-14T07:36:00;99636.80;;;22.47;78.32
50310;BME280;36207;51.850;21.698;2022-08-14T07:38:28;99638.21;;;22.50;78.24
50310;BME280;36207;51.850;21.698;2022-08-14T07:40:55;99639.16;;;22.55;78.28
50310;BME280;36207;51.850;21.698;2022-08-14T07:43:22;99638.73;;;22.58;78.27
50310;BME280;36207;51.850;21.698;2022-08-14T07:45:49;99642.56;;;22.62;78.14
50310;BME280;36207;51.850;21.698;2022-08-14T07:48:15;99645.34;;;22.67;78.10
50310;BME280;36207;51.850;21.698;2022-08-14T07:50:41;99642.75;;;22.73;78.22
50310;BME280;36207;51.850;21.698;2022-08-14T07:53:08;99642.83;;;22.78;78.14
50310;BME280;36207;51.850;21.698;2022-08-14T07:55:35;99647.06;;;22.81;78.01
50310;BME280;36207;51.850;21.698;2022-08-14T07:58:02;99649.02;;;22.81;77.92
50310;BME280;36207;51.850;21.698;2022-08-14T08:00:29;99644.78;;;22.83;77.93
50310;BME280;36207;51.850;21.698;2022-08-14T08:02:56;99641.67;;;22.85;77.98
50310;BME280;36207;51.850;21.698;2022-08-14T08:05:25;99635.96;;;22.86;77.88
50310;BME280;36207;51.850;21.698;2022-08-14T08:07:53;99635.64;;;22.86;77.71
50310;BME280;36207;51.850;21.698;2022-08-14T08:10:23;99630.26;;;22.87;77.80
50310;BME280;36207;51.850;21.698;2022-08-14T08:15:30;99630.75;;;22.91;77.84
50310;BME280;36207;51.850;21.698;2022-08-14T08:18:03;99628.48;;;22.92;77.74
50310;BME280;36207;51.850;21.698;2022-08-14T08:20:37;99630.67;;;22.96;77.94
50310;BME280;36207;51.850;21.698;2022-08-14T08:23:06;99631.98;;;23.01;77.88
50310;BME280;36207;51.850;21.698;2022-08-14T08:25:39;99632.60;;;23.07;77.84
50310;BME280;36207;51.850;21.698;2022-08-14T08:28:14;99636.04;;;23.12;77.70
50310;BME280;36207;51.850;21.698;2022-08-14T08:30:46;99637.89;;;23.13;77.40
50310;BME280;36207;51.850;21.698;2022-08-14T08:33:13;99631.66;;;23.10;77.29
50310;BME280;36207;51.850;21.698;2022-08-14T08:35:42;99630.74;;;23.10;77.29
50310;BME280;36207;51.850;21.698;2022-08-14T08:38:14;99631.42;;;23.12;77.33
50310;BME280;36207;51.850;21.698;2022-08-14T08:40:44;99629.77;;;23.15;77.32
50310;BME280;36207;51.850;21.698;2022-08-14T08:43:29;99628.26;;;23.18;77.42
50310;BME280;36207;51.850;21.698;2022-08-14T08:46:06;99628.48;;;23.21;77.33
50310;BME280;36207;51.850;21.698;2022-08-14T08:48:44;99635.06;;;23.23;77.25
50310;BME280;36207;51.850;21.698;2022-08-14T08:53:57;99632.94;;;23.27;76.91
50310;BME280;36207;51.850;21.698;2022-08-14T08:56:56;99636.48;;;23.26;76.78
50310;BME280;36207;51.850;21.698;2022-08-14T08:59:26;99637.51;;;23.22;76.74
50310;BME280;36207;51.850;21.698;2022-08-14T09:02:01;99635.83;;;23.19;76.79
50310;BME280;36207;51.850;21.698;2022-08-14T09:04:29;99638.48;;;23.17;76.76
50310;BME280;36207;51.850;21.698;2022-08-14T09:06:56;99642.09;;;23.17;76.75
50310;BME280;36207;51.850;21.698;2022-08-14T09:09:25;99641.16;;;23.18;76.68
50310;BME280;36207;51.850;21.698;2022-08-14T09:11:53;99644.00;;;23.19;76.71
50310;BME280;36207;51.850;21.698;2022-08-14T09:14:21;99644.98;;;23.21;76.75
50310;BME280;36207;51.850;21.698;2022-08-14T09:16:49;99643.62;;;23.22;76.66
50310;BME280;36207;51.850;21.698;2022-08-14T09:19:16;99640.41;;;23.21;76.52
50310;BME280;36207;51.850;21.698;2022-08-14T09:21:43;99636.41;;;23.21;76.70
50310;BME280;36207;51.850;21.698;2022-08-14T09:24:12;99630.88;;;23.22;76.51
50310;BME280;36207;51.850;21.698;2022-08-14T09:26:40;99628.36;;;23.21;76.32
50310;BME280;36207;51.850;21.698;2022-08-14T09:29:08;99624.33;;;23.23;76.48
50310;BME280;36207;51.850;21.698;2022-08-14T09:31:39;99624.32;;;23.28;76.47
50310;BME280;36207;51.850;21.698;2022-08-14T09:36:51;99622.59;;;23.36;76.39
50310;BME280;36207;51.850;21.698;2022-08-14T09:45:21;99616.80;;;23.57;76.25
50310;BME280;36207;51.850;21.698;2022-08-14T09:47:55;99612.04;;;23.66;75.93
50310;BME280;36207;51.850;21.698;2022-08-14T09:53:06;99614.11;;;23.82;75.95
50310;BME280;36207;51.850;21.698;2022-08-14T09:55:34;99607.65;;;23.89;75.90
50310;BME280;36207;51.850;21.698;2022-08-14T09:58:10;99603.86;;;23.97;75.88
50310;BME280;36207;51.850;21.698;2022-08-14T10:00:49;99602.15;;;24.18;76.19
50310;BME280;36207;51.850;21.698;2022-08-14T10:03:30;99598.09;;;24.41;76.23
50310;BME280;36207;51.850;21.698;2022-08-14T10:06:10;99601.44;;;24.57;75.81
50310;BME280;36207;51.850;21.698;2022-08-14T10:08:51;99601.37;;;24.62;75.51
50310;BME280;36207;51.850;21.698;2022-08-14T10:11:26;99599.77;;;24.66;75.41
50310;BME280;36207;51.850;21.698;2022-08-14T10:13:59;99595.74;;;24.70;75.32
50310;BME280;36207;51.850;21.698;2022-08-14T10:16:45;99591.63;;;24.73;75.40
50310;BME280;36207;51.850;21.698;2022-08-14T10:19:14;99586.88;;;24.72;75.45
50310;BME280;36207;51.850;21.698;2022-08-14T10:21:43;99588.38;;;24.69;75.13
50310;BME280;36207;51.850;21.698;2022-08-14T10:24:28;99581.63;;;24.65;74.77
50310;BME280;36207;51.850;21.698;2022-08-14T10:26:57;99584.50;;;24.62;75.00
50310;BME280;36207;51.850;21.698;2022-08-14T10:29:35;99583.28;;;24.63;74.65
50310;BME280;36207;51.850;21.698;2022-08-14T10:32:04;99580.56;;;24.64;74.69
50310;BME280;36207;51.850;21.698;2022-08-14T10:34:33;99582.40;;;24.64;74.99
50310;BME280;36207;51.850;21.698;2022-08-14T10:37:09;99583.22;;;24.64;74.43
50310;BME280;36207;51.850;21.698;2022-08-14T10:39:38;99581.29;;;24.60;74.33
50310;BME280;36207;51.850;21.698;2022-08-14T10:42:13;99579.30;;;24.56;73.76
50310;BME280;36207;51.850;21.698;2022-08-14T10:44:42;99577.50;;;24.53;74.28
50310;BME280;36207;51.850;21.698;2022-08-14T10:47:14;99574.66;;;24.52;73.99
50310;BME280;36207;51.850;21.698;2022-08-14T10:49:57;99575.30;;;24.49;74.09
50310;BME280;36207;51.850;21.698;2022-08-14T10:52:29;99571.29;;;24.51;74.36
50310;BME280;36207;51.850;21.698;2022-08-14T10:55:15;99564.36;;;24.57;74.36
50310;BME280;36207;51.850;21.698;2022-08-14T10:57:53;99568.52;;;24.61;74.10
50310;BME280;36207;51.850;21.698;2022-08-14T11:00:25;99567.06;;;24.65;74.41
50310;BME280;36207;51.850;21.698;2022-08-14T11:03:10;99567.19;;;24.71;74.10
50310;BME280;36207;51.850;21.698;2022-08-14T11:05:44;99565.52;;;24.73;73.70
50310;BME280;36207;51.850;21.698;2022-08-14T11:08:12;99563.73;;;24.79;74.05
50310;BME280;36207;51.850;21.698;2022-08-14T11:10:46;99568.64;;;24.89;74.00
50310;BME280;36207;51.850;21.698;2022-08-14T11:13:22;99569.73;;;24.94;73.78
50310;BME280;36207;51.850;21.698;2022-08-14T11:15:49;99570.80;;;24.93;73.54
50310;BME280;36207;51.850;21.698;2022-08-14T11:18:17;99575.39;;;24.91;73.32
50310;BME280;36207;51.850;21.698;2022-08-14T11:20:52;99568.73;;;24.90;73.16
50310;BME280;36207;51.850;21.698;2022-08-14T11:23:21;99565.30;;;24.96;73.73
50310;BME280;36207;51.850;21.698;2022-08-14T11:25:51;99565.50;;;25.06;73.47
50310;BME280;36207;51.850;21.698;2022-08-14T11:28:23;99563.96;;;25.15;73.75
50310;BME280;36207;51.850;21.698;2022-08-14T11:30:52;99564.73;;;25.28;74.06
50310;BME280;36207;51.850;21.698;2022-08-14T11:33:26;99564.47;;;25.39;73.74
50310;BME280;36207;51.850;21.698;2022-08-14T11:35:57;99562.23;;;25.49;73.40
50310;BME280;36207;51.850;21.698;2022-08-14T11:38:34;99559.58;;;25.63;73.51
50310;BME280;36207;51.850;21.698;2022-08-14T11:41:01;99560.75;;;25.80;73.51
50310;BME280;36207;51.850;21.698;2022-08-14T11:43:28;99556.69;;;25.98;73.39
50310;BME280;36207;51.850;21.698;2022-08-14T11:45:56;99558.66;;;26.11;72.45
50310;BME280;36207;51.850;21.698;2022-08-14T11:48:24;99561.58;;;26.14;70.84
50310;BME280;36207;51.850;21.698;2022-08-14T11:50:51;99559.86;;;26.16;71.31
50310;BME280;36207;51.850;21.698;2022-08-14T11:53:26;99557.16;;;26.29;72.33
50310;BME280;36207;51.850;21.698;2022-08-14T11:55:59;99558.97;;;26.41;72.05
50310;BME280;36207;51.850;21.698;2022-08-14T11:58:32;99554.85;;;26.51;72.67
50310;BME280;36207;51.850;21.698;2022-08-14T12:01:01;99552.96;;;26.62;72.59
50310;BME280;36207;51.850;21.698;2022-08-14T12:06:15;99546.16;;;26.80;71.67
50310;BME280;36207;51.850;21.698;2022-08-14T12:08:43;99541.71;;;26.87;71.64
50310;BME280;36207;51.850;21.698;2022-08-14T12:11:13;99540.24;;;26.97;71.26
50310;BME280;36207;51.850;21.698;2022-08-14T12:13:42;99539.42;;;27.07;71.74
50310;BME280;36207;51.850;21.698;2022-08-14T12:16:13;99536.02;;;27.14;71.06
50310;BME280;36207;51.850;21.698;2022-08-14T12:18:43;99541.92;;;27.19;71.03
50310;BME280;36207;51.850;21.698;2022-08-14T12:21:21;99544.77;;;27.20;71.15
50310;BME280;36207;51.850;21.698;2022-08-14T12:24:15;99548.31;;;27.21;70.78
50310;BME280;36207;51.850;21.698;2022-08-14T12:26:41;99546.23;;;27.24;70.94
50310;BME280;36207;51.850;21.698;2022-08-14T12:29:13;99538.82;;;27.30;70.68
50310;BME280;36207;51.850;21.698;2022-08-14T12:31:42;99533.19;;;27.39;70.58
50310;BME280;36207;51.850;21.698;2022-08-14T12:34:12;99532.20;;;27.45;70.07
50310;BME280;36207;51.850;21.698;2022-08-14T12:36:41;99525.60;;;27.45;68.79
50310;BME280;36207;51.850;21.698;2022-08-14T12:39:19;99523.13;;;27.46;69.63
50310;BME280;36207;51.850;21.698;2022-08-14T12:41:50;99521.27;;;27.46;69.05
50310;BME280;36207;51.850;21.698;2022-08-14T12:44:28;99516.69;;;27.38;68.94
50310;BME280;36207;51.850;21.698;2022-08-14T12:47:10;99518.09;;;27.34;69.15
50310;BME280;36207;51.850;21.698;2022-08-14T12:49:50;99515.92;;;27.26;68.45
50310;BME280;36207;51.850;21.698;2022-08-14T12:52:36;99515.37;;;27.17;67.22
50310;BME280;36207;51.850;21.698;2022-08-14T12:55:10;99519.35;;;27.10;67.59
50310;BME280;36207;51.850;21.698;2022-08-14T12:57:38;99517.43;;;27.11;68.30
50310;BME280;36207;51.850;21.698;2022-08-14T13:00:19;99514.52;;;27.13;68.50
50310;BME280;36207;51.850;21.698;2022-08-14T13:02:48;99514.83;;;27.12;67.90
50310;BME280;36207;51.850;21.698;2022-08-14T13:05:27;99510.87;;;27.10;68.38
50310;BME280;36207;51.850;21.698;2022-08-14T13:07:58;99509.90;;;27.05;67.96
50310;BME280;36207;51.850;21.698;2022-08-14T13:10:26;99500.48;;;27.02;67.39
50310;BME280;36207;51.850;21.698;2022-08-14T13:12:57;99494.77;;;27.02;66.89
50310;BME280;36207;51.850;21.698;2022-08-14T13:15:26;99490.65;;;27.00;66.33
50310;BME280;36207;51.850;21.698;2022-08-14T13:17:55;99482.70;;;27.03;67.42
50310;BME280;36207;51.850;21.698;2022-08-14T13:20:24;99478.16;;;27.12;68.02
50310;BME280;36207;51.850;21.698;2022-08-14T13:22:53;99474.98;;;27.23;67.98
50310;BME280;36207;51.850;21.698;2022-08-14T13:25:23;99476.80;;;27.31;66.99